sensor_id;sensor_type;location;lat;lon;timestamp;pressure;altitude;pressure_sealevel;temperature;humidity
12077;BME280;12420;42.676;23.262;2023-01-27T00:02:20;93719.91;;;1.57;100.00
12077;BME280;12420;42.676;23.262;2023-01-27T00:04:47;93720.81;;;1.37;100.00
12077;BME280;12420;42.676;23.262;2023-01-27T00:07:13;93728.56;;;1.50;100.00
12077;BME280;12420;42.676;23.262;2023-01-27T00:09:40;93718.69;;;1.58;100.00
12077;BME280;12420;42.676;23.262;2023-01-27T00:12:17;93720.72;;;1.69;100.00
12077;BME280;12420;42.676;23.262;2023-01-27T00:15:02;93714.03;;;1.76;100.00
12077;BME280;12420;42.676;23.262;2023-01-27T00:17:30;93700.59;;;1.61;100.00
12077;BME280;12420;42.676;23.262;2023-01-27T00:19:57;93711.09;;;1.90;100.00
12077;BME280;12420;42.676;23.262;2023-01-27T00:22:23;93706.16;;;2.00;100.00
12077;BME280;12420;42.676;23.262;2023-01-27T00:25:07;93683.81;;;1.90;100.00
12077;BME280;12420;42.676;23.262;2023-01-27T00:27:36;93665.94;;;1.78;100.00
12077;BME280;12420;42.676;23.262;2023-01-27T00:30:03;93667.44;;;1.85;100.00
12077;BME280;12420;42.676;23.262;2023-01-27T00:32:30;93715.06;;;2.01;100.00
12077;BME280;12420;42.676;23.262;2023-01-27T00:35:14;93679.28;;;1.70;100.00
12077;BME280;12420;42.676;23.262;2023-01-27T00:37:41;93706.41;;;1.97;100.00
12077;BME280;12420;42.676;23.262;2023-01-27T00:40:09;93668.41;;;1.82;100.00
12077;BME280;12420;42.676;23.262;2023-01-27T00:42:37;93665.44;;;1.80;100.00
12077;BME280;12420;42.676;23.262;2023-01-27T00:45:05;93617.78;;;1.58;100.00
12077;BME280;12420;42.676;23.262;2023-01-27T00:47:49;93701.22;;;2.10;100.00
12077;BME280;12420;42.676;23.262;2023-01-27T00:50:16;93673.13;;;1.87;100.00
12077;BME280;12420;42.676;23.262;2023-01-27T00:52:43;93661.22;;;1.90;100.00
12077;BME280;12420;42.676;23.262;2023-01-27T00:55:13;93711.66;;;2.11;100.00
12077;BME280;12420;42.676;23.262;2023-01-27T00:57:42;93693.75;;;2.10;100.00
12077;BME280;12420;42.676;23.262;2023-01-27T01:00:09;93652.00;;;1.65;100.00
12077;BME280;12420;42.676;23.262;2023-01-27T01:02:36;93697.75;;;2.09;100.00
12077;BME280;12420;42.676;23.262;2023-01-27T01:05:04;93694.53;;;2.16;100.00
12077;BME280;12420;42.676;23.262;2023-01-27T01:07:30;93692.03;;;2.02;100.00
12077;BME280;12420;42.676;23.262;2023-01-27T01:09:57;93700.22;;;2.07;100.00
12077;BME280;12420;42.676;23.262;2023-01-27T01:12:24;93695.28;;;2.11;100.00
12077;BME280;12420;42.676;23.262;2023-01-27T01:14:54;93687.56;;;1.99;100.00
12077;BME280;12420;42.676;23.262;2023-01-27T01:17:21;93704.19;;;2.23;100.00
12077;BME280;12420;42.676;23.262;2023-01-27T01:19:48;93710.88;;;2.11;100.00
12077;BME280;12420;42.676;23.262;2023-01-27T01:22:15;93684.06;;;1.92;100.00
12077;BME280;12420;42.676;23.262;2023-01-27T01:24:41;93689.28;;;2.02;100.00
12077;BME280;12420;42.676;23.262;2023-01-27T01:27:08;93699.72;;;2.14;100.00
12077;BME280;12420;42.676;23.262;2023-01-27T01:29:35;93699.75;;;2.20;100.00
12077;BME280;12420;42.676;23.262;2023-01-27T01:32:03;93698.50;;;2.27;100.00
12077;BME280;12420;42.676;23.262;2023-01-27T01:34:34;93707.88;;;1.98;100.00
12077;BME280;12420;42.676;23.262;2023-01-27T01:37:01;93706.63;;;1.93;100.00
12077;BME280;12420;42.676;23.262;2023-01-27T01:39:28;93688.19;;;1.60;100.00
12077;BME280;12420;42.676;23.262;2023-01-27T01:41:55;93699.16;;;1.71;100.00
12077;BME280;12420;42.676;23.262;2023-01-27T01:44:22;93717.00;;;1.78;100.00
12077;BME280;12420;42.676;23.262;2023-01-27T01:46:50;93693.16;;;1.61;100.00
12077;BME280;12420;42.676;23.262;2023-01-27T01:49:21;93712.84;;;1.93;100.00
12077;BME280;12420;42.676;23.262;2023-01-27T01:51:51;93705.41;;;2.00;100.00
12077;BME280;12420;42.676;23.262;2023-01-27T01:54:22;93704.94;;;2.01;100.00
12077;BME280;12420;42.676;23.262;2023-01-27T01:56:53;93691.03;;;2.05;100.00
12077;BME280;12420;42.676;23.262;2023-01-27T01:59:24;93692.78;;;2.13;100.00
12077;BME280;12420;42.676;23.262;2023-01-27T02:01:55;93674.34;;;1.74;100.00
12077;BME280;12420;42.676;23.262;2023-01-27T02:04:26;93679.59;;;2.01;100.00
12077;BME280;12420;42.676;23.262;2023-01-27T02:07:06;93656.03;;;1.86;100.00
12077;BME280;12420;42.676;23.262;2023-01-27T02:09:35;93551.78;;;1.20;100.00
12077;BME280;12420;42.676;23.262;2023-01-27T02:12:05;93670.19;;;2.07;100.00
12077;BME280;12420;42.676;23.262;2023-01-27T02:14:32;93597.72;;;1.67;100.00
12077;BME280;12420;42.676;23.262;2023-01-27T02:16:59;93650.84;;;2.00;100.00
12077;BME280;12420;42.676;23.262;2023-01-27T02:19:32;93652.06;;;1.87;100.00
12077;BME280;12420;42.676;23.262;2023-01-27T02:22:04;93609.88;;;1.66;100.00
12077;BME280;12420;42.676;23.262;2023-01-27T02:24:38;93633.22;;;1.89;100.00
12077;BME280;12420;42.676;23.262;2023-01-27T02:27:11;93568.41;;;1.34;100.00
12077;BME280;12420;42.676;23.262;2023-01-27T02:29:38;93632.47;;;1.94;100.00
12077;BME280;12420;42.676;23.262;2023-01-27T02:32:05;93641.41;;;2.01;100.00
12077;BME280;12420;42.676;23.262;2023-01-27T02:34:33;93618.31;;;1.90;100.00
12077;BME280;12420;42.676;23.262;2023-01-27T02:37:04;93605.66;;;1.87;100.00
12077;BME280;12420;42.676;23.262;2023-01-27T02:39:36;93640.69;;;2.11;100.00
12077;BME280;12420;42.676;23.262;2023-01-27T02:42:06;93645.59;;;1.79;100.00
12077;BME280;12420;42.676;23.262;2023-01-27T02:44:36;93631.66;;;1.55;100.00
12077;BME280;12420;42.676;23.262;2023-01-27T02:47:03;93591.41;;;1.21;100.00
12077;BME280;12420;42.676;23.262;2023-01-27T02:49:29;93619.44;;;1.27;100.00
12077;BME280;12420;42.676;23.262;2023-01-27T02:51:56;93649.75;;;1.52;100.00
12077;BME280;12420;42.676;23.262;2023-01-27T02:54:24;93651.25;;;1.53;100.00
12077;BME280;12420;42.676;23.262;2023-01-27T02:56:52;93649.28;;;1.59;100.00
12077;BME280;12420;42.676;23.262;2023-01-27T02:59:19;93650.78;;;1.66;100.00
12077;BME280;12420;42.676;23.262;2023-01-27T03:01:47;93592.94;;;1.34;100.00
12077;BME280;12420;42.676;23.262;2023-01-27T03:04:14;93608.56;;;1.50;100.00
12077;BME280;12420;42.676;23.262;2023-01-27T03:06:41;93638.91;;;1.86;100.00
12077;BME280;12420;42.676;23.262;2023-01-27T03:09:08;93605.41;;;1.68;100.00
12077;BME280;12420;42.676;23.262;2023-01-27T03:11:34;93626.75;;;1.98;100.00
12077;BME280;12420;42.676;23.262;2023-01-27T03:14:19;93618.31;;;1.90;100.00
12077;BME280;12420;42.676;23.262;2023-01-27T03:16:47;93617.34;;;2.05;100.00
12077;BME280;12420;42.676;23.262;2023-01-27T03:19:31;93613.63;;;2.19;100.00
12077;BME280;12420;42.676;23.262;2023-01-27T03:21:58;93616.38;;;2.19;100.00
12077;BME280;12420;42.676;23.262;2023-01-27T03:24:26;93600.22;;;1.93;100.00
12077;BME280;12420;42.676;23.262;2023-01-27T03:26:52;93582.13;;;1.79;100.00
12077;BME280;12420;42.676;23.262;2023-01-27T03:29:19;93610.16;;;2.02;100.00
12077;BME280;12420;42.676;23.262;2023-01-27T03:32:05;93604.19;;;2.03;100.00
12077;BME280;12420;42.676;23.262;2023-01-27T03:34:31;93613.38;;;2.11;100.00
12077;BME280;12420;42.676;23.262;2023-01-27T03:36:58;93606.41;;;2.16;100.00
12077;BME280;12420;42.676;23.262;2023-01-27T03:39:42;93601.72;;;2.16;100.00
12077;BME280;12420;42.676;23.262;2023-01-27T03:42:26;93596.00;;;1.92;100.00
12077;BME280;12420;42.676;23.262;2023-01-27T03:45:10;93579.38;;;1.90;100.00
12077;BME280;12420;42.676;23.262;2023-01-27T03:47:55;93566.75;;;1.81;100.00
12077;BME280;12420;42.676;23.262;2023-01-27T03:50:22;93577.88;;;1.66;100.00
12077;BME280;12420;42.676;23.262;2023-01-27T03:53:01;93575.84;;;1.39;100.00
12077;BME280;12420;42.676;23.262;2023-01-27T03:55:28;93575.38;;;1.57;100.00
12077;BME280;12420;42.676;23.262;2023-01-27T03:57:55;93584.59;;;1.71;100.00
12077;BME280;12420;42.676;23.262;2023-01-27T04:00:30;93580.59;;;1.78;100.00
12077;BME280;12420;42.676;23.262;2023-01-27T04:02:58;93568.00;;;1.86;100.00
12077;BME280;12420;42.676;23.262;2023-01-27T04:05:42;93578.16;;;1.91;100.00
12077;BME280;12420;42.676;23.262;2023-01-27T04:08:26;93591.78;;;2.02;100.00
12077;BME280;12420;42.676;23.262;2023-01-27T04:10:53;93594.03;;;2.09;100.00
12077;BME280;12420;42.676;23.262;2023-01-27T04:13:34;93606.41;;;2.16;100.00
12077;BME280;12420;42.676;23.262;2023-01-27T04:16:00;93629.75;;;2.17;100.00
12077;BME280;12420;42.676;23.262;2023-01-27T04:18:28;93642.16;;;2.24;100.00
12077;BME280;12420;42.676;23.262;2023-01-27T04:20:55;93645.88;;;2.21;100.00
12077;BME280;12420;42.676;23.262;2023-01-27T04:23:22;93631.00;;;1.99;100.00
12077;BME280;12420;42.676;23.262;2023-01-27T04:25:49;93623.03;;;1.79;100.00
12077;BME280;12420;42.676;23.262;2023-01-27T04:28:18;93616.06;;;1.66;100.00
12077;BME280;12420;42.676;23.262;2023-01-27T04:30:45;93657.50;;;1.87;100.00
12077;BME280;12420;42.676;23.262;2023-01-27T04:33:12;93657.03;;;1.89;100.00
12077;BME280;12420;42.676;23.262;2023-01-27T04:35:43;93667.69;;;1.98;100.00
12077;BME280;12420;42.676;23.262;2023-01-27T04:38:11;93664.00;;;2.07;100.00
12077;BME280;12420;42.676;23.262;2023-01-27T04:40:38;93651.81;;;2.08;100.00
12077;BME280;12420;42.676;23.262;2023-01-27T04:43:04;93658.31;;;2.22;100.00
12077;BME280;12420;42.676;23.262;2023-01-27T04:45:33;93667.22;;;2.28;100.00
12077;BME280;12420;42.676;23.262;2023-01-27T04:48:00;93675.19;;;2.37;100.00
12077;BME280;12420;42.676;23.262;2023-01-27T04:50:30;93578.13;;;1.80;100.00
12077;BME280;12420;42.676;23.262;2023-01-27T04:52:59;93628.75;;;2.14;100.00
12077;BME280;12420;42.676;23.262;2023-01-27T04:55:26;93670.19;;;2.18;100.00
12077;BME280;12420;42.676;23.262;2023-01-27T04:57:52;93746.88;;;2.26;100.00
12077;BME280;12420;42.676;23.262;2023-01-27T05:00:20;93691.31;;;2.35;100.00
12077;BME280;12420;42.676;23.262;2023-01-27T05:02:46;93670.47;;;2.37;100.00
12077;BME280;12420;42.676;23.262;2023-01-27T05:05:13;93662.25;;;2.21;100.00
12077;BME280;12420;42.676;23.262;2023-01-27T05:07:40;93649.84;;;2.20;100.00
12077;BME280;12420;42.676;23.262;2023-01-27T05:10:09;93670.72;;;2.39;100.00
12077;BME280;12420;42.676;23.262;2023-01-27T05:12:36;93675.91;;;2.43;100.00
12077;BME280;12420;42.676;23.262;2023-01-27T05:15:03;93665.75;;;2.38;100.00
12077;BME280;12420;42.676;23.262;2023-01-27T05:17:31;93633.22;;;2.29;100.00
12077;BME280;12420;42.676;23.262;2023-01-27T05:19:57;93661.28;;;2.57;100.00
12077;BME280;12420;42.676;23.262;2023-01-27T05:22:24;93637.69;;;2.32;100.00
12077;BME280;12420;42.676;23.262;2023-01-27T05:24:51;93668.44;;;2.66;100.00
12077;BME280;12420;42.676;23.262;2023-01-27T05:27:19;93666.72;;;2.52;100.00
12077;BME280;12420;42.676;23.262;2023-01-27T05:29:46;93663.25;;;2.63;100.00
12077;BME280;12420;42.676;23.262;2023-01-27T05:32:12;93661.00;;;2.67;100.00
12077;BME280;12420;42.676;23.262;2023-01-27T05:34:39;93657.50;;;2.72;100.00
12077;BME280;12420;42.676;23.262;2023-01-27T05:37:06;93626.00;;;2.48;100.00
12077;BME280;12420;42.676;23.262;2023-01-27T05:39:33;93649.84;;;2.65;100.00
12077;BME280;12420;42.676;23.262;2023-01-27T05:41:59;93628.25;;;2.33;100.00
12077;BME280;12420;42.676;23.262;2023-01-27T05:44:28;93630.97;;;2.38;100.00
12077;BME280;12420;42.676;23.262;2023-01-27T05:46:54;93644.13;;;2.57;100.00
12077;BME280;12420;42.676;23.262;2023-01-27T05:49:21;93643.63;;;2.64;100.00
12077;BME280;12420;42.676;23.262;2023-01-27T05:51:48;93641.41;;;2.40;100.00
12077;BME280;12420;42.676;23.262;2023-01-27T05:54:14;93614.63;;;2.22;100.00
12077;BME280;12420;42.676;23.262;2023-01-27T05:56:41;93643.38;;;2.34;100.00
12077;BME280;12420;42.676;23.262;2023-01-27T05:59:09;93655.31;;;2.36;100.00
12077;BME280;12420;42.676;23.262;2023-01-27T06:01:38;93657.53;;;2.44;100.00
12077;BME280;12420;42.676;23.262;2023-01-27T06:04:05;93644.16;;;2.34;100.00
12077;BME280;12420;42.676;23.262;2023-01-27T06:06:33;93642.41;;;2.37;100.00
12077;BME280;12420;42.676;23.262;2023-01-27T06:09:00;93631.72;;;2.39;100.00
12077;BME280;12420;42.676;23.262;2023-01-27T06:11:27;93592.28;;;2.17;100.00
12077;BME280;12420;42.676;23.262;2023-01-27T06:13:54;93655.03;;;2.57;100.00
12077;BME280;12420;42.676;23.262;2023-01-27T06:16:22;93659.28;;;2.58;100.00
12077;BME280;12420;42.676;23.262;2023-01-27T06:18:50;93672.19;;;2.52;100.00
12077;BME280;12420;42.676;23.262;2023-01-27T06:21:17;93653.56;;;2.56;100.00
12077;BME280;12420;42.676;23.262;2023-01-27T06:23:44;93654.81;;;2.55;100.00
12077;BME280;12420;42.676;23.262;2023-01-27T06:26:13;93674.94;;;2.35;100.00
12077;BME280;12420;42.676;23.262;2023-01-27T06:28:40;93652.34;;;2.06;100.00
12077;BME280;12420;42.676;23.262;2023-01-27T06:31:09;93607.16;;;1.83;100.00
12077;BME280;12420;42.676;23.262;2023-01-27T06:33:36;93670.69;;;2.34;100.00
12077;BME280;12420;42.676;23.262;2023-01-27T06:36:07;93597.72;;;2.01;100.00
12077;BME280;12420;42.676;23.262;2023-01-27T06:38:34;93682.13;;;2.44;100.00
12077;BME280;12420;42.676;23.262;2023-01-27T06:41:03;93682.88;;;2.50;100.00
12077;BME280;12420;42.676;23.262;2023-01-27T06:43:31;93648.38;;;2.52;100.00
12077;BME280;12420;42.676;23.262;2023-01-27T06:45:58;93678.16;;;2.73;100.00
12077;BME280;12420;42.676;23.262;2023-01-27T06:48:25;93689.56;;;2.88;100.00
12077;BME280;12420;42.676;23.262;2023-01-27T06:50:52;93669.44;;;2.80;100.00
12077;BME280;12420;42.676;23.262;2023-01-27T06:53:20;93654.06;;;2.49;100.00
12077;BME280;12420;42.676;23.262;2023-01-27T06:55:49;93689.56;;;2.66;100.00
12077;BME280;12420;42.676;23.262;2023-01-27T06:58:23;93677.13;;;2.81;100.00
12077;BME280;12420;42.676;23.262;2023-01-27T07:00:52;93676.66;;;2.49;100.00
12077;BME280;12420;42.676;23.262;2023-01-27T07:03:19;93626.75;;;1.87;100.00
12077;BME280;12420;42.676;23.262;2023-01-27T07:05:45;93678.63;;;2.09;100.00
12077;BME280;12420;42.676;23.262;2023-01-27T07:08:12;93678.63;;;2.09;100.00
12077;BME280;12420;42.676;23.262;2023-01-27T07:10:40;93680.59;;;2.03;100.00
12077;BME280;12420;42.676;23.262;2023-01-27T07:13:09;93691.03;;;2.16;100.00
12077;BME280;12420;42.676;23.262;2023-01-27T07:15:36;93695.03;;;2.43;100.00
12077;BME280;12420;42.676;23.262;2023-01-27T07:18:04;93683.34;;;2.26;100.00
12077;BME280;12420;42.676;23.262;2023-01-27T07:20:31;93689.06;;;2.28;100.00
12077;BME280;12420;42.676;23.262;2023-01-27T07:22:58;93682.63;;;2.31;100.00
12077;BME280;12420;42.676;23.262;2023-01-27T07:25:25;93678.66;;;2.32;100.00
12077;BME280;12420;42.676;23.262;2023-01-27T07:27:56;93644.63;;;1.99;100.00
12077;BME280;12420;42.676;23.262;2023-01-27T07:30:23;93679.88;;;2.14;100.00
12077;BME280;12420;42.676;23.262;2023-01-27T07:32:49;93690.56;;;2.06;100.00
12077;BME280;12420;42.676;23.262;2023-01-27T07:35:18;93669.66;;;1.81;100.00
12077;BME280;12420;42.676;23.262;2023-01-27T07:37:45;93624.94;;;1.44;100.00
12077;BME280;12420;42.676;23.262;2023-01-27T07:40:12;93681.81;;;1.85;100.00
12077;BME280;12420;42.676;23.262;2023-01-27T07:42:39;93671.41;;;1.78;100.00
12077;BME280;12420;42.676;23.262;2023-01-27T07:45:08;93678.63;;;2.04;100.00
12077;BME280;12420;42.676;23.262;2023-01-27T07:47:35;93643.63;;;1.91;100.00
12077;BME280;12420;42.676;23.262;2023-01-27T07:50:01;93690.56;;;2.40;100.00
12077;BME280;12420;42.676;23.262;2023-01-27T07:52:28;93686.81;;;2.54;100.00
12077;BME280;12420;42.676;23.262;2023-01-27T07:54:55;93678.91;;;2.51;100.00
12077;BME280;12420;42.676;23.262;2023-01-27T07:57:21;93681.88;;;2.53;100.00
12077;BME280;12420;42.676;23.262;2023-01-27T07:59:48;93653.81;;;2.41;100.00
12077;BME280;12420;42.676;23.262;2023-01-27T08:02:20;93695.28;;;2.68;100.00
12077;BME280;12420;42.676;23.262;2023-01-27T08:04:47;93696.28;;;2.76;100.00
12077;BME280;12420;42.676;23.262;2023-01-27T08:07:14;93687.31;;;2.87;100.00
12077;BME280;12420;42.676;23.262;2023-01-27T08:09:41;93678.63;;;2.88;100.00
12077;BME280;12420;42.676;23.262;2023-01-27T08:12:08;93666.66;;;3.02;100.00
12077;BME280;12420;42.676;23.262;2023-01-27T08:14:34;93682.50;;;3.26;100.00
12077;BME280;12420;42.676;23.262;2023-01-27T08:17:01;93677.72;;;3.44;100.00
12077;BME280;12420;42.676;23.262;2023-01-27T08:19:29;93671.25;;;3.41;100.00
12077;BME280;12420;42.676;23.262;2023-01-27T08:21:56;93684.38;;;3.60;100.00
12077;BME280;12420;42.676;23.262;2023-01-27T08:24:23;93675.72;;;3.44;100.00
12077;BME280;12420;42.676;23.262;2023-01-27T08:26:49;93698.56;;;3.53;100.00
12077;BME280;12420;42.676;23.262;2023-01-27T08:29:16;93714.47;;;3.48;100.00
12077;BME280;12420;42.676;23.262;2023-01-27T08:31:43;93703.78;;;3.56;100.00
12077;BME280;12420;42.676;23.262;2023-01-27T08:34:10;93698.31;;;3.51;100.00
12077;BME280;12420;42.676;23.262;2023-01-27T08:36:40;93641.56;;;3.04;100.00
12077;BME280;12420;42.676;23.262;2023-01-27T08:39:08;93684.50;;;3.15;100.00
12077;BME280;12420;42.676;23.262;2023-01-27T08:41:34;93709.09;;;3.32;100.00
12077;BME280;12420;42.676;23.262;2023-01-27T08:44:01;93679.06;;;3.09;100.00
12077;BME280;12420;42.676;23.262;2023-01-27T08:46:30;93691.53;;;2.82;100.00
12077;BME280;12420;42.676;23.262;2023-01-27T08:48:56;93702.16;;;3.14;100.00
12077;BME280;12420;42.676;23.262;2023-01-27T08:51:23;93710.41;;;2.97;100.00
12077;BME280;12420;42.676;23.262;2023-01-27T08:53:51;93701.47;;;2.96;100.00
12077;BME280;12420;42.676;23.262;2023-01-27T08:56:18;93694.53;;;2.73;100.00
12077;BME280;12420;42.676;23.262;2023-01-27T08:58:45;93689.06;;;2.73;100.00
12077;BME280;12420;42.676;23.262;2023-01-27T09:01:15;93718.09;;;2.98;100.00
12077;BME280;12420;42.676;23.262;2023-01-27T09:03:43;93672.19;;;2.80;100.00
12077;BME280;12420;42.676;23.262;2023-01-27T09:06:11;93708.88;;;3.13;100.00
12077;BME280;12420;42.676;23.262;2023-01-27T09:08:39;93709.41;;;2.94;100.00
12077;BME280;12420;42.676;23.262;2023-01-27T09:11:11;93705.47;;;2.78;100.00
12077;BME280;12420;42.676;23.262;2023-01-27T09:13:38;93685.59;;;2.67;100.00
12077;BME280;12420;42.676;23.262;2023-01-27T09:16:06;93681.88;;;2.53;100.00
12077;BME280;12420;42.676;23.262;2023-01-27T09:18:34;93706.47;;;2.70;100.00
12077;BME280;12420;42.676;23.262;2023-01-27T09:21:02;93724.59;;;2.56;100.00
12077;BME280;12420;42.676;23.262;2023-01-27T09:23:30;93705.22;;;2.65;100.00
12077;BME280;12420;42.676;23.262;2023-01-27T09:25:57;93702.00;;;2.55;100.00
12077;BME280;12420;42.676;23.262;2023-01-27T09:28:27;93702.22;;;2.18;100.00
12077;BME280;12420;42.676;23.262;2023-01-27T09:30:56;93687.09;;;2.11;100.00
12077;BME280;12420;42.676;23.262;2023-01-27T09:33:23;93685.31;;;1.86;100.00
12077;BME280;12420;42.676;23.262;2023-01-27T09:35:54;93617.19;;;1.20;100.00
12077;BME280;12420;42.676;23.262;2023-01-27T09:38:22;93674.28;;;1.52;100.00
12077;BME280;12420;42.676;23.262;2023-01-27T09:47:06;93668.53;;;1.39;100.00
12077;BME280;12420;42.676;23.262;2023-01-27T09:52:44;93650.91;;;1.34;100.00
12077;BME280;12420;42.676;23.262;2023-01-27T09:55:18;93653.72;;;1.62;100.00
12077;BME280;12420;42.676;23.262;2023-01-27T09:57:52;93646.81;;;1.61;100.00
12077;BME280;12420;42.676;23.262;2023-01-27T10:00:36;93641.31;;;1.50;100.00
12077;BME280;12420;42.676;23.262;2023-01-27T10:03:18;93619.28;;;1.59;100.00
12077;BME280;12420;42.676;23.262;2023-01-27T10:06:10;93612.56;;;1.60;100.00
12077;BME280;12420;42.676;23.262;2023-01-27T10:09:08;93630.75;;;1.91;100.00
12077;BME280;12420;42.676;23.262;2023-01-27T10:11:44;93633.97;;;2.01;100.00
12077;BME280;12420;42.676;23.262;2023-01-27T10:14:21;93635.44;;;2.02;100.00
12077;BME280;12420;42.676;23.262;2023-01-27T10:17:04;93622.03;;;1.93;100.00
12077;BME280;12420;42.676;23.262;2023-01-27T10:19:45;93599.47;;;1.81;100.00
12077;BME280;12420;42.676;23.262;2023-01-27T10:22:18;93632.50;;;2.17;100.00
12077;BME280;12420;42.676;23.262;2023-01-27T10:24:59;93612.38;;;2.20;100.00
12077;BME280;12420;42.676;23.262;2023-01-27T10:27:34;93639.69;;;2.43;100.00
12077;BME280;12420;42.676;23.262;2023-01-27T10:30:09;93626.00;;;2.03;100.00
12077;BME280;12420;42.676;23.262;2023-01-27T10:32:43;93640.16;;;2.13;100.00
12077;BME280;12420;42.676;23.262;2023-01-27T10:35:15;93627.03;;;2.11;100.00
12077;BME280;12420;42.676;23.262;2023-01-27T10:37:52;93603.16;;;1.61;100.00
12077;BME280;12420;42.676;23.262;2023-01-27T10:40:32;93603.13;;;1.39;100.00
12077;BME280;12420;42.676;23.262;2023-01-27T10:43:06;93630.22;;;1.76;100.00
12077;BME280;12420;42.676;23.262;2023-01-27T10:45:36;93626.97;;;1.66;100.00
12077;BME280;12420;42.676;23.262;2023-01-27T10:48:26;93622.00;;;1.59;100.00
12077;BME280;12420;42.676;23.262;2023-01-27T10:50:59;93594.94;;;1.39;100.00
12077;BME280;12420;42.676;23.262;2023-01-27T10:53:32;93599.59;;;1.27;100.00
12077;BME280;12420;42.676;23.262;2023-01-27T10:56:05;93649.53;;;1.61;100.00
12077;BME280;12420;42.676;23.262;2023-01-27T10:58:45;93539.34;;;0.97;100.00
12077;BME280;12420;42.676;23.262;2023-01-27T11:01:16;93607.38;;;1.57;100.00
12077;BME280;12420;42.676;23.262;2023-01-27T11:03:50;93624.50;;;1.80;100.00
12077;BME280;12420;42.676;23.262;2023-01-27T11:06:21;93625.97;;;1.58;100.00
12077;BME280;12420;42.676;23.262;2023-01-27T11:08:51;93618.75;;;1.44;100.00
12077;BME280;12420;42.676;23.262;2023-01-27T11:11:20;93613.28;;;1.44;100.00
12077;BME280;12420;42.676;23.262;2023-01-27T11:14:13;93592.41;;;1.24;100.00
12077;BME280;12420;42.676;23.262;2023-01-27T11:16:44;93623.44;;;1.38;100.00
12077;BME280;12420;42.676;23.262;2023-01-27T11:19:21;93601.53;;;1.10;100.00
12077;BME280;12420;42.676;23.262;2023-01-27T11:21:52;93616.91;;;1.07;100.00
12077;BME280;12420;42.676;23.262;2023-01-27T11:24:27;93586.09;;;0.90;100.00
12077;BME280;12420;42.676;23.262;2023-01-27T11:27:03;93612.88;;;0.97;100.00
12077;BME280;12420;42.676;23.262;2023-01-27T11:29:37;93610.19;;;1.02;100.00
12077;BME280;12420;42.676;23.262;2023-01-27T11:32:12;93608.47;;;1.05;100.00
12077;BME280;12420;42.676;23.262;2023-01-27T11:34:50;93602.56;;;1.23;100.00
12077;BME280;12420;42.676;23.262;2023-01-27T11:37:21;93602.53;;;1.12;100.00
12077;BME280;12420;42.676;23.262;2023-01-27T11:39:49;93595.31;;;1.03;100.00
12077;BME280;12420;42.676;23.262;2023-01-27T11:42:16;93604.72;;;1.02;100.00
12077;BME280;12420;42.676;23.262;2023-01-27T11:44:44;93615.13;;;1.04;100.00
12077;BME280;12420;42.676;23.262;2023-01-27T11:47:20;93594.56;;;0.97;100.00
12077;BME280;12420;42.676;23.262;2023-01-27T11:49:51;93606.69;;;0.96;100.00
12077;BME280;12420;42.676;23.262;2023-01-27T11:52:20;93591.09;;;0.97;100.00
12077;BME280;12420;42.676;23.262;2023-01-27T11:54:53;93589.59;;;0.96;100.00
12077;BME280;12420;42.676;23.262;2023-01-27T11:57:23;93575.41;;;0.80;100.00
12077;BME280;12420;42.676;23.262;2023-01-27T11:59:52;93593.84;;;1.08;100.00
12077;BME280;12420;42.676;23.262;2023-01-27T12:02:26;93575.22;;;0.90;100.00
12077;BME280;12420;42.676;23.262;2023-01-27T12:05:02;93558.78;;;0.73;100.00
12077;BME280;12420;42.676;23.262;2023-01-27T12:07:39;93574.94;;;0.88;100.00
12077;BME280;12420;42.676;23.262;2023-01-27T12:10:25;93601.19;;;0.85;100.00
12077;BME280;12420;42.676;23.262;2023-01-27T12:12:53;93562.03;;;0.77;100.00
12077;BME280;12420;42.676;23.262;2023-01-27T12:15:21;93599.03;;;1.06;100.00
12077;BME280;12420;42.676;23.262;2023-01-27T12:17:52;93558.06;;;0.78;100.00
12077;BME280;12420;42.676;23.262;2023-01-27T12:20:39;93587.88;;;0.98;100.00
12077;BME280;12420;42.676;23.262;2023-01-27T12:23:18;93592.13;;;1.05;100.00
12077;BME280;12420;42.676;23.262;2023-01-27T12:25:49;93590.88;;;1.06;100.00
12077;BME280;12420;42.676;23.262;2023-01-27T12:28:25;93598.31;;;1.05;100.00
12077;BME280;12420;42.676;23.262;2023-01-27T12:30:56;93588.72;;;1.33;100.00
12077;BME280;12420;42.676;23.262;2023-01-27T12:33:29;93590.22;;;1.45;100.00
12077;BME280;12420;42.676;23.262;2023-01-27T12:35:59;93557.50;;;1.22;100.00
12077;BME280;12420;42.676;23.262;2023-01-27T12:38:28;93592.00;;;1.59;100.00
12077;BME280;12420;42.676;23.262;2023-01-27T12:41:01;93595.72;;;1.67;100.00
12077;BME280;12420;42.676;23.262;2023-01-27T12:43:30;93587.03;;;1.52;100.00
12077;BME280;12420;42.676;23.262;2023-01-27T12:46:07;93596.72;;;1.64;100.00
12077;BME280;12420;42.676;23.262;2023-01-27T12:48:46;93562.94;;;1.34;100.00
12077;BME280;12420;42.676;23.262;2023-01-27T12:51:19;93612.03;;;1.39;100.00
12077;BME280;12420;42.676;23.262;2023-01-27T12:53:47;93607.31;;;1.40;100.00
12077;BME280;12420;42.676;23.262;2023-01-27T12:56:16;93602.66;;;1.51;100.00
12077;BME280;12420;42.676;23.262;2023-01-27T12:58:44;93557.22;;;1.20;100.00
12077;BME280;12420;42.676;23.262;2023-01-27T13:01:24;93592.94;;;1.39;100.00
12077;BME280;12420;42.676;23.262;2023-01-27T13:04:10;93593.19;;;1.36;100.00
12077;BME280;12420;42.676;23.262;2023-01-27T13:06:42;93547.78;;;1.04;100.00
12077;BME280;12420;42.676;23.262;2023-01-27T13:09:23;93594.94;;;1.33;100.00
12077;BME280;12420;42.676;23.262;2023-01-27T13:11:53;93597.66;;;1.39;100.00
12077;BME280;12420;42.676;23.262;2023-01-27T13:14:21;93604.56;;;1.23;100.00
12077;BME280;12420;42.676;23.262;2023-01-27T13:16:52;93590.47;;;1.36;100.00